createdAt,value
2019-03-03T00:00:42.932Z,100655.03
2019-03-03T00:03:11.412Z,100661.80
2019-03-03T00:05:39.889Z,100658.75
2019-03-03T00:08:08.383Z,100653.11
2019-03-03T00:10:36.972Z,100655.60
2019-03-03T00:13:05.444Z,100656.33
2019-03-03T00:15:33.990Z,100654.09
2019-03-03T00:18:02.443Z,100648.67
2019-03-03T00:20:30.904Z,100640.31
2019-03-03T00:22:59.357Z,100637.26
2019-03-03T00:25:27.831Z,100625.48
2019-03-03T00:27:56.293Z,100619.45
2019-03-03T00:30:24.919Z,100616.86
2019-03-03T00:32:53.364Z,100617.73
2019-03-03T00:35:22.525Z,100611.79
2019-03-03T00:37:55.599Z,100605.26
2019-03-03T00:40:34.742Z,100606.60
2019-03-03T00:43:10.375Z,100604.44
2019-03-03T00:45:40.493Z,100609.18
2019-03-03T00:48:10.615Z,100604.44
2019-03-03T00:50:40.712Z,100599.59
2019-03-03T00:53:27.198Z,100599.59
2019-03-03T00:55:59.681Z,100598.87
2019-03-03T00:58:45.106Z,100600.70
2019-03-03T01:01:18.289Z,100590.84
2019-03-03T01:03:48.394Z,100591.02
2019-03-03T01:06:36.596Z,100585.69
2019-03-03T01:09:15.325Z,100582.00
2019-03-03T01:11:45.437Z,100589.28
2019-03-03T01:14:18.295Z,100583.30
2019-03-03T01:16:57.455Z,100585.47
2019-03-03T01:19:30.393Z,100583.84
2019-03-03T01:22:12.479Z,100583.38
2019-03-03T01:24:54.217Z,100583.23
2019-03-03T01:27:22.829Z,100585.66
2019-03-03T01:29:51.347Z,100587.93
2019-03-03T01:32:19.892Z,100584.90
2019-03-03T01:34:48.356Z,100584.06
2019-03-03T01:37:16.993Z,100582.78
2019-03-03T01:39:45.459Z,100582.55
2019-03-03T01:42:13.919Z,100578.27
2019-03-03T01:44:42.389Z,100572.66
2019-03-03T01:47:10.860Z,100563.08
2019-03-03T01:49:39.343Z,100562.16
2019-03-03T01:52:07.791Z,100564.47
2019-03-03T01:54:36.276Z,100561.42
2019-03-03T01:57:05.063Z,100554.69
2019-03-03T01:59:33.543Z,100552.30
2019-03-03T02:02:02.047Z,100549.77
2019-03-03T02:04:30.518Z,100537.92
2019-03-03T02:06:59.003Z,100539.39
2019-03-03T02:09:27.605Z,100535.80
2019-03-03T02:11:56.253Z,100523.77
2019-03-03T02:14:24.747Z,100526.47
2019-03-03T02:16:53.220Z,100523.45
2019-03-03T02:19:21.675Z,100525.42
2019-03-03T02:21:50.258Z,100524.63
2019-03-03T02:24:18.712Z,100520.56
2019-03-03T02:26:47.172Z,100516.41
2019-03-03T02:29:15.631Z,100512.95
2019-03-03T02:31:44.091Z,100511.53
2019-03-03T02:34:12.569Z,100512.14
2019-03-03T02:36:41.059Z,100503.92
2019-03-03T02:39:15.466Z,100505.00
2019-03-03T02:41:43.917Z,100504.78
2019-03-03T02:44:12.353Z,100505.41
2019-03-03T02:46:40.825Z,100501.33
2019-03-03T02:49:09.282Z,100494.87
2019-03-03T02:51:37.984Z,100494.46
2019-03-03T02:54:06.584Z,100488.22
2019-03-03T02:56:35.039Z,100489.09
2019-03-03T02:59:03.500Z,100490.55
2019-03-03T03:01:33.593Z,100492.28
2019-03-03T03:04:02.050Z,100486.62
2019-03-03T03:06:34.922Z,100490.23
2019-03-03T03:09:15.670Z,100492.75
2019-03-03T03:11:45.760Z,100491.57
2019-03-03T03:14:15.850Z,100485.53
2019-03-03T03:16:48.673Z,100483.80
2019-03-03T03:19:33.957Z,100479.86
2019-03-03T03:22:10.134Z,100480.01
2019-03-03T03:24:46.039Z,100472.19
2019-03-03T03:27:25.437Z,100470.69
2019-03-03T03:29:58.075Z,100465.61
2019-03-03T03:32:28.162Z,100457.20
2019-03-03T03:34:58.290Z,100451.42
2019-03-03T03:37:34.036Z,100456.45
2019-03-03T03:40:19.374Z,100448.30
2019-03-03T03:42:55.364Z,100444.01
2019-03-03T03:45:34.244Z,100439.52
2019-03-03T03:48:04.346Z,100433.77
2019-03-03T03:50:46.001Z,100426.23
2019-03-03T03:53:32.546Z,100417.33
2019-03-03T03:56:02.650Z,100412.70
2019-03-03T03:58:45.179Z,100408.26
2019-03-03T04:01:27.259Z,100400.47
2019-03-03T04:04:00.028Z,100409.01
2019-03-03T04:06:42.043Z,100402.56
2019-03-03T04:09:25.445Z,100402.17
2019-03-03T04:12:10.491Z,100394.77
2019-03-03T04:14:43.033Z,100400.27
2019-03-03T04:17:22.020Z,100405.84
2019-03-03T04:20:01.061Z,100404.54
2019-03-03T04:22:31.144Z,100397.88
2019-03-03T04:25:01.252Z,100391.72
2019-03-03T04:27:31.337Z,100373.36
2019-03-03T04:30:01.427Z,100369.83
2019-03-03T04:32:31.517Z,100371.41
2019-03-03T04:35:04.428Z,100374.45
2019-03-03T04:37:51.010Z,100362.70
2019-03-03T04:40:36.331Z,100360.95
2019-03-03T04:43:21.836Z,100358.95
2019-03-03T04:45:54.568Z,100366.23
2019-03-03T04:48:24.709Z,100364.72
2019-03-03T04:51:09.770Z,100359.83
2019-03-03T04:53:42.510Z,100357.51
2019-03-03T04:56:21.069Z,100362.15
2019-03-03T04:58:51.138Z,100354.52
2019-03-03T05:01:27.390Z,100353.00
2019-03-03T05:04:00.414Z,100351.94
2019-03-03T05:06:42.438Z,100352.45
2019-03-03T05:09:24.398Z,100349.03
2019-03-03T05:12:27.644Z,100346.44
2019-03-03T05:15:00.420Z,100352.48
2019-03-03T05:17:30.545Z,100351.23
2019-03-03T05:20:03.284Z,100346.02
2019-03-03T05:22:31.710Z,100337.20
2019-03-03T05:25:00.319Z,100340.58
2019-03-03T05:27:28.777Z,100343.05
2019-03-03T05:29:57.242Z,100340.46
2019-03-03T05:32:25.690Z,100332.36
2019-03-03T05:34:54.168Z,100337.30
2019-03-03T05:37:22.621Z,100330.59
2019-03-03T05:39:51.095Z,100325.48
2019-03-03T05:42:19.580Z,100320.45
2019-03-03T05:44:48.035Z,100317.56
2019-03-03T05:47:16.490Z,100309.70
2019-03-03T05:49:44.927Z,100315.67
2019-03-03T05:52:13.382Z,100308.50
2019-03-03T05:54:41.825Z,100305.67
2019-03-03T05:57:10.242Z,100299.53
2019-03-03T05:59:38.707Z,100300.34
2019-03-03T06:02:07.135Z,100301.00
2019-03-03T06:04:35.558Z,100301.34
2019-03-03T06:07:04.034Z,100303.10
2019-03-03T06:09:32.511Z,100292.20
2019-03-03T06:12:01.034Z,100290.35
2019-03-03T06:14:29.478Z,100282.59
2019-03-03T06:16:57.942Z,100282.08
2019-03-03T06:19:26.373Z,100290.77
2019-03-03T06:21:54.832Z,100282.42
2019-03-03T06:24:23.306Z,100281.75
2019-03-03T06:26:51.824Z,100282.48
2019-03-03T06:29:20.276Z,100283.47
2019-03-03T06:31:48.666Z,100271.89
2019-03-03T06:34:17.121Z,100276.56
2019-03-03T06:36:45.578Z,100272.15
2019-03-03T06:39:14.054Z,100271.29
2019-03-03T06:41:42.480Z,100267.80
2019-03-03T06:44:10.920Z,100264.02
2019-03-03T06:46:39.368Z,100257.19
2019-03-03T06:49:07.796Z,100247.38
2019-03-03T06:51:36.240Z,100242.21
2019-03-03T06:54:04.780Z,100240.91
2019-03-03T06:56:33.246Z,100246.45
2019-03-03T06:59:01.699Z,100244.44
2019-03-03T07:01:30.136Z,100237.34
2019-03-03T07:03:58.590Z,100246.41
2019-03-03T07:06:27.058Z,100235.80
2019-03-03T07:08:55.562Z,100238.97
2019-03-03T07:11:24.000Z,100235.59
2019-03-03T07:13:52.992Z,100230.32
2019-03-03T07:16:21.456Z,100230.72
2019-03-03T07:18:49.914Z,100234.42
2019-03-03T07:21:18.374Z,100237.07
2019-03-03T07:23:46.808Z,100229.78
2019-03-03T07:26:15.254Z,100229.80
2019-03-03T07:28:43.716Z,100230.67
2019-03-03T07:31:12.190Z,100228.67
2019-03-03T07:33:40.712Z,100221.95
2019-03-03T07:36:09.158Z,100221.25
2019-03-03T07:38:37.610Z,100228.59
2019-03-03T07:41:06.056Z,100223.67
2019-03-03T07:43:34.520Z,100222.45
2019-03-03T07:46:02.952Z,100221.81
2019-03-03T07:48:31.433Z,100210.72
2019-03-03T07:50:59.864Z,100213.01
2019-03-03T07:53:28.322Z,100213.56
2019-03-03T07:55:56.768Z,100215.92
2019-03-03T07:58:25.244Z,100207.88
2019-03-03T08:00:53.718Z,100206.31
2019-03-03T08:03:22.154Z,100207.69
2019-03-03T08:05:50.623Z,100209.92
2019-03-03T08:08:19.062Z,100203.14
2019-03-03T08:10:47.512Z,100199.80
2019-03-03T08:13:15.971Z,100197.28
2019-03-03T08:15:44.425Z,100192.71
2019-03-03T08:18:12.856Z,100185.42
2019-03-03T08:20:41.310Z,100191.73
2019-03-03T08:23:09.776Z,100190.30
2019-03-03T08:25:38.216Z,100182.82
2019-03-03T08:28:06.651Z,100182.82
2019-03-03T08:30:35.113Z,100178.92
2019-03-03T08:33:03.729Z,100178.92
2019-03-03T08:35:33.202Z,100178.23
2019-03-03T08:38:01.664Z,100178.23
2019-03-03T08:40:30.112Z,100177.33
2019-03-03T08:43:09.232Z,100169.11
2019-03-03T08:45:54.292Z,100164.45
2019-03-03T08:48:24.403Z,100176.63
2019-03-03T08:50:57.199Z,100189.52
2019-03-03T08:53:27.275Z,100189.52
2019-03-03T08:56:03.610Z,100188.09
2019-03-03T08:58:39.931Z,100176.41
2019-03-03T09:01:10.480Z,100186.48
2019-03-03T09:03:49.572Z,100174.09
2019-03-03T09:06:22.324Z,100174.09
2019-03-03T09:09:01.496Z,100176.02
2019-03-03T09:11:46.893Z,100186.12
2019-03-03T09:14:16.974Z,100186.12
2019-03-03T09:16:56.770Z,100188.92
2019-03-03T09:19:26.850Z,100184.59
2019-03-03T09:22:12.068Z,100175.01
2019-03-03T09:24:46.333Z,100193.05
2019-03-03T09:27:16.426Z,100190.81
2019-03-03T09:29:46.516Z,100190.81
2019-03-03T09:32:19.556Z,100184.70
2019-03-03T09:34:49.667Z,100183.02
2019-03-03T09:37:28.489Z,100180.33
2019-03-03T09:40:15.154Z,100180.33
2019-03-03T09:42:50.647Z,100173.45
2019-03-03T09:45:20.754Z,100172.64
2019-03-03T09:47:56.828Z,100172.64
2019-03-03T09:50:26.919Z,100183.56
2019-03-03T09:53:13.536Z,100181.88
2019-03-03T09:55:46.604Z,100172.65
2019-03-03T09:58:19.388Z,100169.95
2019-03-03T10:00:55.674Z,100171.44
2019-03-03T10:03:31.557Z,100187.72
2019-03-03T10:06:15.455Z,100194.22
2019-03-03T10:09:01.754Z,100190.17
2019-03-03T10:11:34.680Z,100189.77
2019-03-03T10:14:04.778Z,100186.37
2019-03-03T10:16:46.835Z,100184.69
2019-03-03T10:19:16.911Z,100183.91
2019-03-03T10:21:49.957Z,100184.50
2019-03-03T10:24:36.272Z,100190.67
2019-03-03T10:27:12.900Z,100184.06
2019-03-03T10:29:42.997Z,100186.72
2019-03-03T10:32:13.076Z,100183.45
2019-03-03T10:34:59.670Z,100187.44
2019-03-03T10:37:44.533Z,100191.10
2019-03-03T10:40:20.124Z,100197.36
2019-03-03T10:42:50.242Z,100184.66
2019-03-03T10:45:38.332Z,100184.36
2019-03-03T10:48:08.411Z,100182.52
2019-03-03T10:50:44.232Z,100182.23
2019-03-03T10:53:14.310Z,100187.24
2019-03-03T10:55:44.402Z,100191.01
2019-03-03T10:58:26.777Z,100190.53
2019-03-03T11:00:59.968Z,100198.43
2019-03-03T11:03:32.961Z,100191.01
2019-03-03T11:06:03.219Z,100182.37
2019-03-03T11:08:36.001Z,100181.84
2019-03-03T11:11:19.241Z,100180.16
2019-03-03T11:13:49.666Z,100176.50
2019-03-03T11:16:32.035Z,100177.77
2019-03-03T11:19:10.721Z,100175.47
2019-03-03T11:21:40.844Z,100175.47
2019-03-03T11:24:10.952Z,100171.73
2019-03-03T11:26:57.238Z,100167.44
2019-03-03T11:29:27.344Z,100166.36
2019-03-03T11:32:15.730Z,100164.19
2019-03-03T11:34:45.841Z,100164.31
2019-03-03T11:37:15.952Z,100165.27
2019-03-03T11:39:46.076Z,100147.52
2019-03-03T11:42:19.806Z,100170.34
2019-03-03T11:45:06.583Z,100162.18
2019-03-03T11:47:36.687Z,100162.18
2019-03-03T11:50:15.788Z,100160.67
2019-03-03T11:52:51.834Z,100161.84
2019-03-03T11:55:37.059Z,100159.67
2019-03-03T11:58:09.939Z,100155.94
2019-03-03T12:00:40.030Z,100164.05
2019-03-03T12:03:10.140Z,100164.05
2019-03-03T12:05:40.272Z,100157.94
2019-03-03T12:08:22.360Z,100157.94
2019-03-03T12:10:55.160Z,100157.80
2019-03-03T12:13:25.274Z,100159.36
2019-03-03T12:16:08.083Z,100159.36
2019-03-03T12:18:54.598Z,100162.73
2019-03-03T12:21:30.460Z,100170.39
2019-03-03T12:24:18.780Z,100163.54
2019-03-03T12:26:48.881Z,100175.64
2019-03-03T12:29:35.128Z,100167.54
2019-03-03T12:32:05.209Z,100156.94
2019-03-03T12:34:44.467Z,100152.30
2019-03-03T12:37:17.569Z,100153.17
2019-03-03T12:39:47.661Z,100144.88
2019-03-03T12:42:26.577Z,100126.17
2019-03-03T12:45:11.631Z,100136.72
2019-03-03T12:47:47.704Z,100134.94
2019-03-03T12:50:33.093Z,100143.48
2019-03-03T12:53:08.920Z,100152.25
2019-03-03T12:55:41.419Z,100144.01
2019-03-03T12:58:11.518Z,100141.02
2019-03-03T13:00:56.389Z,100131.67
2019-03-03T13:03:29.432Z,100131.72
2019-03-03T13:06:08.062Z,100136.97
2019-03-03T13:08:43.877Z,100136.97
2019-03-03T13:11:30.151Z,100126.55
2019-03-03T13:14:12.263Z,100130.02
2019-03-03T13:16:48.054Z,100132.31
2019-03-03T13:19:18.333Z,100117.05
2019-03-03T13:22:04.680Z,100123.91
2019-03-03T13:24:37.199Z,100111.63
2019-03-03T13:27:22.097Z,100114.79
2019-03-03T13:29:54.907Z,100107.80
2019-03-03T13:32:30.929Z,100107.80
2019-03-03T13:35:07.005Z,100101.97
2019-03-03T13:37:37.089Z,100101.97
2019-03-03T13:40:21.665Z,100099.33
2019-03-03T13:42:58.856Z,100099.88
2019-03-03T13:45:29.373Z,100093.17
2019-03-03T13:47:57.887Z,100092.06
2019-03-03T13:50:26.563Z,100084.80
2019-03-03T13:52:55.093Z,100082.50
2019-03-03T13:55:23.706Z,100075.88
2019-03-03T13:57:52.369Z,100075.88
2019-03-03T14:00:22.895Z,100064.16
2019-03-03T14:02:51.496Z,100068.50
2019-03-03T14:05:21.518Z,100063.52
2019-03-03T14:07:50.133Z,100067.78
2019-03-03T14:10:18.621Z,100059.21
2019-03-03T14:12:47.219Z,100054.50
2019-03-03T14:15:17.630Z,100057.98
2019-03-03T14:17:46.106Z,100062.69
2019-03-03T14:20:17.624Z,100063.19
2019-03-03T14:22:46.251Z,100055.08
2019-03-03T14:25:15.422Z,100047.05
2019-03-03T14:27:44.118Z,100056.17
2019-03-03T14:30:17.893Z,100054.80
2019-03-03T14:32:46.399Z,100052.16
2019-03-03T14:35:16.323Z,100044.99
2019-03-03T14:37:44.753Z,100045.12
2019-03-03T14:40:15.973Z,100046.97
2019-03-03T14:42:44.409Z,100074.31
2019-03-03T14:45:17.914Z,100041.88
2019-03-03T14:47:46.563Z,100045.39
2019-03-03T14:50:20.445Z,100049.77
2019-03-03T14:52:51.175Z,100050.75
2019-03-03T14:55:20.354Z,100053.83
2019-03-03T14:57:48.863Z,100055.57
2019-03-03T15:00:29.100Z,100049.06
2019-03-03T15:02:59.014Z,100041.39
2019-03-03T15:05:27.553Z,100041.39
2019-03-03T15:07:56.102Z,100032.55
2019-03-03T15:10:24.555Z,100048.25
2019-03-03T15:12:53.111Z,100035.11
2019-03-03T15:15:27.514Z,100041.91
2019-03-03T15:17:56.015Z,100043.30
2019-03-03T15:20:26.839Z,100041.17
2019-03-03T15:22:55.227Z,100048.46
2019-03-03T15:25:23.762Z,100051.23
2019-03-03T15:27:52.296Z,100042.08
2019-03-03T15:30:21.876Z,100042.60
2019-03-03T15:32:50.663Z,100040.82
2019-03-03T15:35:19.261Z,100044.54
2019-03-03T15:37:47.983Z,100039.67
2019-03-03T15:40:21.993Z,100039.16
2019-03-03T15:42:50.423Z,100032.18
2019-03-03T15:45:23.331Z,100026.50
2019-03-03T15:47:51.775Z,100019.33
2019-03-03T15:50:22.229Z,100014.91
2019-03-03T15:52:50.775Z,100016.29
2019-03-03T15:55:20.943Z,100011.81
2019-03-03T15:57:49.415Z,100011.05
2019-03-03T16:00:26.412Z,100004.73
2019-03-03T16:02:54.879Z,100009.36
2019-03-03T16:05:23.311Z,99999.45
2019-03-03T16:07:51.762Z,100002.09
2019-03-03T16:10:24.897Z,100002.05
2019-03-03T16:12:53.288Z,99986.74
2019-03-03T16:15:21.794Z,99984.95
2019-03-03T16:17:50.237Z,99984.95
2019-03-03T16:20:20.331Z,99983.56
2019-03-03T16:22:48.846Z,99982.76
2019-03-03T16:25:24.967Z,99976.20
2019-03-03T16:27:53.415Z,99969.38
2019-03-03T16:30:25.623Z,99964.75
2019-03-03T16:32:54.064Z,99966.59
2019-03-03T16:35:22.618Z,99954.27
2019-03-03T16:37:51.059Z,99954.27
2019-03-03T16:40:27.055Z,99951.39
2019-03-03T16:42:55.510Z,99954.13
2019-03-03T16:45:24.045Z,99954.13
2019-03-03T16:47:52.515Z,99951.19
2019-03-03T16:50:22.096Z,99958.34
2019-03-03T16:52:50.607Z,99947.09
2019-03-03T16:55:20.225Z,99947.09
2019-03-03T16:57:48.743Z,99951.47
2019-03-03T17:00:25.845Z,99947.30
2019-03-03T17:02:54.312Z,99938.54
2019-03-03T17:05:25.143Z,99947.72
2019-03-03T17:07:53.617Z,99945.08
2019-03-03T17:10:22.053Z,99943.68
2019-03-03T17:12:50.493Z,99937.13
2019-03-03T17:15:24.612Z,99937.13
2019-03-03T17:17:53.077Z,99931.52
2019-03-03T17:20:21.512Z,99931.52
2019-03-03T17:22:50.226Z,99933.67
2019-03-03T17:25:26.254Z,99936.41
2019-03-03T17:27:54.712Z,99936.41
2019-03-03T17:30:24.295Z,99930.31
2019-03-03T17:32:52.803Z,99926.84
2019-03-03T17:35:21.511Z,99926.84
2019-03-03T17:37:49.972Z,99936.71
2019-03-03T17:40:26.634Z,99936.71
2019-03-03T17:42:55.362Z,99935.31
2019-03-03T17:45:24.645Z,99935.31
2019-03-03T17:47:53.725Z,99930.64
2019-03-03T17:50:26.934Z,99924.78
2019-03-03T17:52:55.475Z,99923.48
2019-03-03T17:55:23.971Z,99927.38
2019-03-03T17:57:52.438Z,99916.03
2019-03-03T18:00:27.177Z,99916.59
2019-03-03T18:02:55.767Z,99910.75
2019-03-03T18:05:24.223Z,99901.16
2019-03-03T18:07:52.798Z,99901.74
2019-03-03T18:10:21.284Z,99906.70
2019-03-03T18:12:49.916Z,99906.70
2019-03-03T18:15:18.631Z,99893.91
2019-03-03T18:17:47.124Z,99893.91
2019-03-03T18:20:22.206Z,99897.46
2019-03-03T18:22:50.724Z,99899.06
2019-03-03T18:25:20.240Z,99899.63
2019-03-03T18:27:48.679Z,99885.64
2019-03-03T18:30:19.361Z,99885.64
2019-03-03T18:32:48.085Z,99894.97
2019-03-03T18:35:16.794Z,99894.97
2019-03-03T18:37:45.379Z,99884.86
2019-03-03T18:40:19.160Z,99886.55
2019-03-03T18:42:48.048Z,99885.25
2019-03-03T18:45:18.223Z,99888.42
2019-03-03T18:47:46.943Z,99880.44
2019-03-03T18:50:28.904Z,99880.44
2019-03-03T18:52:59.681Z,99874.95
2019-03-03T18:55:27.532Z,99877.65
2019-03-03T18:57:56.006Z,99876.94
2019-03-03T19:00:26.272Z,99874.09
2019-03-03T19:02:54.741Z,99874.09
2019-03-03T19:05:23.493Z,99877.17
2019-03-03T19:07:52.471Z,99868.95
2019-03-03T19:10:25.172Z,99865.68
2019-03-03T19:12:53.894Z,99869.62
2019-03-03T19:15:22.362Z,99869.62
2019-03-03T19:17:50.825Z,99859.67
2019-03-03T19:20:21.158Z,99866.94
2019-03-03T19:22:50.166Z,99869.28
2019-03-03T19:25:18.899Z,99860.72
